Perryman, Maryland
Current Conditions -  °F | °C
As of 1:45 PM on Friday 21 Nov 2014 (Local Time) from KMTN Reporting Station
Clear Clear  
Wind Chill: 31°   Ceiling: Unl
Heat Index: 37°   Visibility: 10mi
Dew Point: 10°   Wind: 8mph
Humidity: 33%   Direction: 280°W
Pressure: 30.45"   Gusts: NA
Location:  39.47°N, 76.2°W
Report Text: KMTN 211845Z 28007KT 10SM SKC 03/M12 A3045
Loading
Personal Weather Stations






























Interactive Weather Map New forecast layout! Learn more

10-Day Weather Forecast

Advertisements
Track Severe Weather on mobile